Terminal Aerodrome Forecast
Issued by NWS

Home | Current Version | Previous Version | Graphics & Text | Print | Product List | Glossary Off
Versions: 1 2 3 4 5 6 7 8 9 10 11 12 13 14 15 16

032
FTUS41 KCLE 180540
TAFFDY
TAF
KFDY 180540Z 1806/1906 21008KT P6SM SKC
     FM180800 21010KT P6SM SCT040
     FM181200 24012G20KT P6SM SCT025 BKN040
      TEMPO 1812/1816 BKN025
     FM181600 26015G25KT P6SM BKN050
     FM182300 26010KT P6SM SCT120=

USA.gov is the U.S. government's official web portal to all federal, state and local government web resources and services.